LIPY/AOI METAR and TAF weather

Enter ICAO airport designator
Station Type Date Time Source
LIPY METAR 2018/12/18 22:50 UTC NOAA

LIPY 182250Z 20004KT 8000 FEW025 02/01 Q1026


Station Type Date Time Source
LIPY Decoded METAR 2018/12/18 22:50 UTC NOAA

Falconara, Italy (LIPY) 43-37N 013-22E 10M
Dec 18, 2018 - 05:50 PM EST / 2018.12.18 2250 UTC
Wind: from the SSW (200 degrees) at 5 MPH (4 KT):0
Visibility: 4 mile(s):0
Sky conditions: mostly clear
Temperature: 35 F (2 C)
Windchill: 30 F (-1 C):1
Dew Point: 33 F (1 C)
Relative Humidity: 93%
Pressure (altimeter): 30.30 in. Hg (1026 hPa)
ob: LIPY 182250Z 20004KT 8000 FEW025 02/01 Q1026
cycle: 23

Station Type Date Time Source
LIPY TAF 2018/12/18 18:21 UTC NOAA

TAF LIPY 181700Z 1818/1918 30006KT 9999 FEW030
TEMPO 1822/1907 3000 BR


Example: see airport list